Time;durP1;ratioP1;P1;durP2;ratioP2;P2;SDS_P1;SDS_P2;PMS_P1;PMS_P2;Temp;Humidity;BMP_temperature;BMP_pressure;BME280_temperature;BME280_humidity;BME280_pressure;Samples;Min_cycle;Max_cycle;Signal;HPM_P1;HPM_P2
2022/01/20 03:45:27;;;;;;;13.25;7.50;;;6.90;82.30;;;;;;5703202;24;21171;-83
2022/01/20 03:48:02;;;;;;;12.43;6.43;;;6.90;82.50;;;;;;4778593;29;20075;-83
2022/01/20 03:53:12;;;;;;;12.85;7.00;;;6.90;82.30;;;;;;4783064;30;20067;-83
2022/01/20 03:55:41;;;;;;;12.23;7.43;;;6.90;81.60;;;;;;4784353;30;20034;-83
2022/01/20 03:58:11;;;;;;;11.45;7.28;;;6.90;82.00;;;;;;4784620;30;20353;-84
2022/01/20 04:00:41;;;;;;;11.63;8.07;;;7.00;82.20;;;;;;4755956;30;20227;-84
2022/01/20 04:03:19;;;;;;;12.95;7.82;;;7.00;81.70;;;;;;4772081;30;20092;-83
2022/01/20 04:06:00;;;;;;;11.77;7.32;;;7.00;81.90;;;;;;4772700;30;20335;-83
2022/01/20 04:08:34;;;;;;;13.65;8.02;;;7.00;81.50;;;;;;4782081;30;20039;-83
2022/01/20 04:11:09;;;;;;;11.68;7.50;;;7.00;81.60;;;;;;4772857;30;20031;-83
2022/01/20 04:13:35;;;;;;;13.73;7.68;;;7.00;81.70;;;;;;4783835;30;20146;-83
2022/01/20 04:16:20;;;;;;;14.32;7.22;;;7.00;81.80;;;;;;4784213;30;20076;-83
2022/01/20 04:18:53;;;;;;;13.82;7.97;;;7.00;81.80;;;;;;4783931;30;20080;-83
2022/01/20 04:21:22;;;;;;;19.35;8.23;;;7.00;81.70;;;;;;4783548;30;20319;-83
2022/01/20 04:23:48;;;;;;;12.88;7.18;;;7.00;81.90;;;;;;4799694;29;20037;-83
2022/01/20 04:26:14;;;;;;;11.15;6.18;;;7.00;81.70;;;;;;4783745;30;20345;-82
2022/01/20 04:28:40;;;;;;;10.85;6.63;;;7.00;81.60;;;;;;4783488;30;20035;-82
2022/01/20 04:31:06;;;;;;;16.67;7.43;;;7.00;81.80;;;;;;4783510;30;20250;-83
2022/01/20 04:33:31;;;;;;;18.45;7.60;;;7.00;81.50;;;;;;4754263;30;20081;-83
2022/01/20 04:35:57;;;;;;;10.95;6.65;;;7.00;81.60;;;;;;4780684;30;20038;-82
2022/01/20 04:38:23;;;;;;;10.82;6.32;;;7.00;81.50;;;;;;4769168;30;20035;-82
2022/01/20 04:40:49;;;;;;;11.77;6.15;;;7.00;81.40;;;;;;4768568;30;20035;-83
2022/01/20 04:43:15;;;;;;;11.10;6.15;;;7.00;82.00;;;;;;4768780;30;20123;-83
2022/01/20 04:45:48;;;;;;;12.43;7.15;;;7.00;82.20;;;;;;4766809;30;20146;-82
2022/01/20 04:48:31;;;;;;;11.32;6.50;;;7.00;82.00;;;;;;4784404;30;20043;-83
2022/01/20 04:59:13;;;;;;;11.10;7.00;;;7.00;83.10;;;;;;4782331;30;20217;-83
2022/01/20 05:01:44;;;;;;;9.93;6.00;;;7.00;83.00;;;;;;4780642;30;20050;-83
2022/01/20 05:04:30;;;;;;;12.50;6.50;;;6.90;83.10;;;;;;4786263;30;20035;-82
2022/01/20 05:07:17;;;;;;;10.60;6.47;;;6.90;83.20;;;;;;4784936;30;20035;-82
2022/01/20 05:09:43;;;;;;;11.38;5.63;;;6.90;83.20;;;;;;4782857;30;20086;-82
2022/01/20 05:12:13;;;;;;;9.98;5.70;;;6.90;83.50;;;;;;4767804;30;20264;-82
2022/01/20 05:14:40;;;;;;;9.77;5.80;;;6.90;83.60;;;;;;4782569;30;20039;-82
2022/01/20 05:17:07;;;;;;;11.55;6.07;;;6.90;83.50;;;;;;4782788;30;20027;-82
2022/01/20 05:19:33;;;;;;;11.77;4.72;;;6.90;83.60;;;;;;4782381;30;20027;-81
2022/01/20 05:22:00;;;;;;;8.77;5.43;;;6.90;83.60;;;;;;4780900;30;20028;-82
2022/01/20 05:24:33;;;;;;;10.68;5.88;;;6.90;84.00;;;;;;4783779;30;20291;-82
2022/01/20 05:26:59;;;;;;;10.07;5.93;;;6.90;84.00;;;;;;4753574;30;20230;-82
2022/01/20 05:29:27;;;;;;;10.18;5.45;;;6.90;84.00;;;;;;4768407;30;20080;-82
2022/01/20 05:31:53;;;;;;;9.07;5.47;;;6.90;84.00;;;;;;4782624;30;20034;-83
2022/01/20 05:34:19;;;;;;;9.55;5.95;;;6.90;83.90;;;;;;4753057;30;20336;-83
2022/01/20 05:36:47;;;;;;;8.02;4.72;;;6.90;83.90;;;;;;4779522;30;20051;-83
2022/01/20 05:39:16;;;;;;;9.52;5.47;;;6.90;83.90;;;;;;4782482;30;20334;-83
2022/01/20 05:41:42;;;;;;;9.07;5.35;;;6.90;84.30;;;;;;4780340;30;20027;-83
2022/01/20 05:44:20;;;;;;;7.10;4.57;;;6.90;84.40;;;;;;4784063;30;20046;-83
2022/01/20 05:46:49;;;;;;;9.70;5.95;;;6.90;84.50;;;;;;4749495;30;20047;-83
2022/01/20 05:49:37;;;;;;;9.23;5.60;;;6.90;84.80;;;;;;4783043;30;20047;-83
2022/01/20 05:52:05;;;;;;;8.82;5.35;;;6.90;84.70;;;;;;4753344;30;20281;-83
2022/01/20 05:54:31;;;;;;;9.18;5.80;;;6.80;85.00;;;;;;4782406;30;20031;-83
2022/01/20 05:56:57;;;;;;;7.75;4.53;;;6.90;84.90;;;;;;4782362;30;20033;-83
2022/01/20 05:59:23;;;;;;;11.27;6.03;;;6.80;84.90;;;;;;4755389;29;20110;-83
2022/01/20 06:01:56;;;;;;;10.00;5.47;;;6.80;85.40;;;;;;4794323;29;20316;-83
2022/01/20 06:04:22;;;;;;;9.80;5.78;;;6.80;85.40;;;;;;4796835;29;20072;-83
2022/01/20 06:06:48;;;;;;;9.70;5.85;;;6.80;85.60;;;;;;4780497;30;20032;-82
2022/01/20 06:09:14;;;;;;;8.10;5.20;;;6.80;85.60;;;;;;4764113;30;20031;-84
2022/01/20 06:11:40;;;;;;;9.60;4.85;;;6.80;86.00;;;;;;4764442;30;20300;-84
2022/01/20 06:14:10;;;;;;;8.70;5.28;;;6.80;86.20;;;;;;4780156;30;20050;-83
2022/01/20 06:16:37;;;;;;;7.65;4.50;;;6.80;86.40;;;;;;4776220;30;20035;-83
2022/01/20 06:19:04;;;;;;;10.30;5.57;;;6.80;86.50;;;;;;4782118;30;20031;-82
2022/01/20 06:21:30;;;;;;;8.43;4.82;;;6.70;86.70;;;;;;4752513;30;20027;-82
2022/01/20 06:23:56;;;;;;;7.93;4.90;;;6.70;87.00;;;;;;4751767;30;20235;-82
2022/01/20 06:26:22;;;;;;;8.13;5.32;;;6.70;87.40;;;;;;4781753;30;20035;-82
2022/01/20 06:28:49;;;;;;;;;;;6.70;87.70;;;;;;4782295;30;20031;-83
2022/01/20 06:31:17;;;;;;;11.88;5.20;;;6.70;88.30;;;;;;4765963;30;19974;-83
2022/01/20 06:33:43;;;;;;;7.23;4.70;;;6.60;88.50;;;;;;4784782;29;20065;-84
2022/01/20 06:36:11;;;;;;;7.30;4.57;;;6.70;88.90;;;;;;4791141;29;20104;-84
2022/01/20 06:38:37;;;;;;;7.65;4.72;;;6.50;89.60;;;;;;4784739;30;20039;-83
2022/01/20 06:41:03;;;;;;;9.00;4.85;;;6.60;89.80;;;;;;4752052;29;20080;-84
2022/01/20 06:43:33;;;;;;;8.55;4.75;;;6.60;90.00;;;;;;4767711;30;20055;-84
2022/01/20 06:45:59;;;;;;;11.23;4.75;;;6.60;90.10;;;;;;4781300;30;20126;-84
2022/01/20 06:49:01;;;;;;;5.55;3.95;;;6.50;90.20;;;;;;4723950;30;20363;-84
2022/01/20 06:51:36;;;;;;;6.40;4.25;;;6.50;90.50;;;;;;4708692;30;20048;-84
2022/01/20 06:54:04;;;;;;;9.60;4.53;;;6.50;90.70;;;;;;4673275;30;20080;-83
2022/01/20 06:56:31;;;;;;;9.07;4.85;;;6.50;90.80;;;;;;4693780;30;20085;-84
2022/01/20 06:58:58;;;;;;;8.65;4.80;;;6.50;90.90;;;;;;4708977;30;20045;-83
2022/01/20 07:01:24;;;;;;;7.10;4.63;;;6.40;91.10;;;;;;4680096;30;20129;-83
2022/01/20 07:03:52;;;;;;;7.05;4.57;;;6.40;91.20;;;;;;4688561;30;20069;-84
2022/01/20 07:06:18;;;;;;;7.70;4.88;;;6.40;91.20;;;;;;4707012;30;20029;-82
2022/01/20 07:09:03;;;;;;;8.43;4.72;;;6.40;91.40;;;;;;4705819;30;20094;-84
2022/01/20 07:11:31;;;;;;;7.05;4.75;;;6.40;91.40;;;;;;4671078;30;20062;-84
2022/01/20 07:14:00;;;;;;;7.82;5.20;;;6.40;91.50;;;;;;4687253;30;20034;-84
2022/01/20 07:16:28;;;;;;;7.93;4.85;;;6.40;91.60;;;;;;4694014;30;20355;-84
2022/01/20 07:18:55;;;;;;;9.55;5.38;;;6.30;91.60;;;;;;4672527;30;20057;-84
2022/01/20 07:21:21;;;;;;;8.15;5.20;;;6.30;91.70;;;;;;4691165;30;20049;-83
2022/01/20 07:23:53;;;;;;;8.57;5.07;;;6.40;91.70;;;;;;4767900;30;20035;-84
2022/01/20 07:26:19;;;;;;;8.82;4.70;;;6.40;91.80;;;;;;4779678;30;20027;-84
2022/01/20 07:28:55;;;;;;;7.45;4.80;;;6.40;91.80;;;;;;4781186;30;20059;-84
2022/01/20 07:31:22;;;;;;;7.28;4.60;;;6.40;92.00;;;;;;4764855;30;20366;-84
2022/01/20 07:33:49;;;;;;;7.20;4.20;;;6.40;92.00;;;;;;4751050;30;20043;-84
2022/01/20 07:36:17;;;;;;;8.88;5.03;;;6.30;92.00;;;;;;4786649;30;20331;-84
2022/01/20 07:38:43;;;;;;;8.53;5.33;;;6.30;92.10;;;;;;4783156;30;20086;-84
2022/01/20 07:41:10;;;;;;;6.13;4.40;;;6.40;92.20;;;;;;4783329;30;20327;-84
2022/01/20 07:43:37;;;;;;;15.20;5.20;;;6.40;92.20;;;;;;4753493;30;20062;-84
2022/01/20 07:46:20;;;;;;;8.73;4.55;;;6.30;92.30;;;;;;4781298;30;20487;-84
2022/01/20 07:48:49;;;;;;;6.70;4.50;;;6.40;92.40;;;;;;4754633;30;20106;-84
2022/01/20 07:51:17;;;;;;;8.57;5.00;;;6.30;92.40;;;;;;4770205;29;20084;-84
2022/01/20 07:53:44;;;;;;;7.95;5.00;;;6.30;92.40;;;;;;4786920;29;20050;-84
2022/01/20 07:56:12;;;;;;;6.88;4.63;;;6.30;92.40;;;;;;4782882;30;20213;-84
2022/01/20 07:58:39;;;;;;;6.85;3.92;;;6.30;92.50;;;;;;4785778;29;20027;-84
2022/01/20 08:01:06;;;;;;;5.55;3.75;;;6.30;92.50;;;;;;4782989;30;20023;-84
2022/01/20 08:03:38;;;;;;;6.53;3.60;;;6.30;92.40;;;;;;4782511;30;20047;-84
2022/01/20 08:06:08;;;;;;;13.23;3.83;;;6.30;92.40;;;;;;4783482;30;20051;-84
2022/01/20 08:08:37;;;;;;;5.85;3.47;;;6.40;92.40;;;;;;4782558;30;20114;-84
2022/01/20 08:11:23;;;;;;;6.00;3.55;;;6.30;92.40;;;;;;4756153;30;20035;-84
2022/01/20 08:13:56;;;;;;;15.38;3.42;;;6.30;92.50;;;;;;4754694;30;20044;-84
2022/01/20 08:16:22;;;;;;;5.32;3.50;;;6.30;92.30;;;;;;4755468;30;20527;-84
2022/01/20 08:18:48;;;;;;;5.13;3.27;;;6.30;92.30;;;;;;4739252;30;20359;-84
2022/01/20 08:21:14;;;;;;;6.47;3.85;;;6.40;92.30;;;;;;4738751;30;20039;-84
2022/01/20 08:23:40;;;;;;;5.18;3.25;;;6.40;92.30;;;;;;4724665;30;20052;-84
2022/01/20 08:26:05;;;;;;;7.43;3.20;;;6.50;92.20;;;;;;4735934;30;20288;-84
2022/01/20 08:28:31;;;;;;;5.05;3.13;;;6.50;92.20;;;;;;4737006;30;20044;-84
2022/01/20 08:30:58;;;;;;;6.18;3.45;;;6.50;92.20;;;;;;4725228;30;20391;-84
2022/01/20 08:33:25;;;;;;;3.85;2.83;;;6.50;92.30;;;;;;4728641;30;20039;-84
2022/01/20 08:35:56;;;;;;;4.57;3.38;;;6.50;92.30;;;;;;4748619;30;20036;-84
2022/01/20 08:38:38;;;;;;;4.70;3.13;;;6.50;92.30;;;;;;4754879;30;20358;-84
2022/01/20 08:41:04;;;;;;;5.80;3.47;;;6.50;92.50;;;;;;4738568;30;20103;-84
2022/01/20 08:43:38;;;;;;;11.15;4.07;;;6.50;92.60;;;;;;4723903;30;20058;-84
2022/01/20 08:46:10;;;;;;;8.90;3.47;;;6.50;92.60;;;;;;4765073;30;20131;-84
2022/01/20 08:48:38;;;;;;;6.47;3.17;;;6.50;92.50;;;;;;4776120;30;20051;-84
2022/01/20 08:51:07;;;;;;;6.07;3.63;;;6.50;92.50;;;;;;4782421;30;20039;-84
2022/01/20 08:53:43;;;;;;;4.43;3.15;;;6.50;92.50;;;;;;4792248;30;20062;-84
2022/01/20 08:56:10;;;;;;;;;;;6.60;92.30;;;;;;4782458;30;20038;-84
2022/01/20 08:58:39;;;;;;;4.43;3.27;;;6.60;92.20;;;;;;4782855;29;19917;-84
2022/01/20 09:01:05;;;;;;;9.60;3.17;;;6.60;92.30;;;;;;4781531;30;20034;-84
2022/01/20 09:03:33;;;;;;;5.45;3.55;;;6.60;92.10;;;;;;4747777;30;20070;-84
2022/01/20 09:06:02;;;;;;;4.15;2.80;;;6.50;92.10;;;;;;4775537;30;20047;-84
2022/01/20 09:08:35;;;;;;;6.85;3.13;;;6.60;92.20;;;;;;4762719;30;20058;-84
2022/01/20 09:11:17;;;;;;;3.83;2.65;;;6.50;92.00;;;;;;4748221;30;20032;-84
2022/01/20 09:16:28;;;;;;;4.97;2.70;;;6.50;91.90;;;;;;4750393;30;20124;-84
2022/01/20 09:18:59;;;;;;;4.38;3.00;;;6.50;91.90;;;;;;4748639;30;20032;-84
2022/01/20 09:21:28;;;;;;;5.72;2.97;;;6.50;91.90;;;;;;4747958;30;20028;-84
2022/01/20 09:23:57;;;;;;;3.33;2.53;;;6.50;91.90;;;;;;4748467;30;20043;-84
2022/01/20 09:26:24;;;;;;;;;;;6.60;91.60;;;;;;4748825;30;20143;-84
2022/01/20 09:28:52;;;;;;;5.30;2.40;;;6.50;91.70;;;;;;4762081;30;19933;-84
2022/01/20 09:31:24;;;;;;;5.22;2.40;;;6.60;91.60;;;;;;4776992;30;20051;-84
2022/01/20 09:33:50;;;;;;;7.50;2.78;;;6.70;91.60;;;;;;4753022;30;20124;-84
2022/01/20 09:36:17;;;;;;;3.88;2.30;;;6.70;91.10;;;;;;4781839;30;20028;-84
2022/01/20 09:38:43;;;;;;;4.45;2.72;;;6.80;91.00;;;;;;4751810;30;20032;-84
2022/01/20 09:41:16;;;;;;;2.53;2.22;;;6.80;91.00;;;;;;4796522;30;20030;-84
2022/01/20 09:43:43;;;;;;;3.70;2.50;;;6.80;90.70;;;;;;4764972;29;20357;-84
2022/01/20 09:46:09;;;;;;;4.45;2.60;;;6.90;90.50;;;;;;4786448;30;20066;-84
2022/01/20 09:48:39;;;;;;;4.05;2.50;;;6.90;90.30;;;;;;4782244;30;20041;-84
2022/01/20 09:51:26;;;;;;;4.40;2.45;;;6.90;90.50;;;;;;4759858;30;20240;-84
2022/01/20 09:54:05;;;;;;;4.78;2.97;;;6.90;90.60;;;;;;4745312;30;20059;-84
2022/01/20 09:56:36;;;;;;;5.38;2.88;;;6.90;90.30;;;;;;4731220;30;20051;-84
2022/01/20 09:59:03;;;;;;;4.60;2.70;;;7.10;90.20;;;;;;4749365;30;20035;-84
2022/01/20 10:01:44;;;;;;;5.38;2.60;;;7.20;89.30;;;;;;4716011;30;20032;-84
2022/01/20 10:04:27;;;;;;;7.45;2.15;;;7.30;88.70;;;;;;4745302;30;20060;-84
2022/01/20 10:07:08;;;;;;;6.45;2.45;;;7.30;87.60;;;;;;4768662;30;20031;-84
2022/01/20 10:09:45;;;;;;;5.50;2.35;;;7.40;87.00;;;;;;4737267;30;20362;-84
2022/01/20 10:12:34;;;;;;;4.07;1.90;;;7.40;86.70;;;;;;4743703;30;20099;-84
2022/01/20 10:15:11;;;;;;;3.65;2.00;;;7.50;86.90;;;;;;4750822;30;20043;-84
2022/01/20 10:17:41;;;;;;;6.18;2.05;;;7.60;86.10;;;;;;4740266;30;20050;-84
2022/01/20 10:20:08;;;;;;;4.03;2.25;;;7.60;85.60;;;;;;4721098;30;20036;-84
2022/01/20 10:22:56;;;;;;;;;;;7.60;86.00;;;;;;4753641;30;20066;-84
2022/01/20 10:26:13;;;;;;;3.25;2.30;;;7.60;85.60;;;;;;4718330;30;20084;-84
2022/01/20 10:28:53;;;;;;;5.35;2.80;;;7.60;86.40;;;;;;4720161;30;20040;-84
2022/01/20 10:31:51;;;;;;;4.28;2.33;;;7.50;86.80;;;;;;4726470;30;20067;-84
2022/01/20 10:34:20;;;;;;;3.38;2.60;;;7.60;86.90;;;;;;4666994;30;20042;-84
2022/01/20 10:36:55;;;;;;;2.97;2.05;;;7.60;87.00;;;;;;4683688;30;20037;-84
2022/01/20 10:39:35;;;;;;;3.22;2.05;;;7.60;86.50;;;;;;4676944;30;20038;-84
2022/01/20 10:42:07;;;;;;;7.55;3.10;;;7.60;86.60;;;;;;4675188;30;20113;-84
2022/01/20 10:44:52;;;;;;;3.63;2.70;;;7.70;87.00;;;;;;4673822;30;20125;-84
2022/01/20 10:47:19;;;;;;;4.18;2.65;;;7.90;86.30;;;;;;4682546;30;20169;-84
2022/01/20 10:49:46;;;;;;;8.98;2.42;;;8.00;85.00;;;;;;4689286;30;20049;-84
2022/01/20 10:52:16;;;;;;;4.15;2.55;;;8.10;84.70;;;;;;4689137;30;20042;-84
2022/01/20 10:54:48;;;;;;;4.72;2.42;;;8.10;84.30;;;;;;4683639;30;20046;-84
2022/01/20 10:57:33;;;;;;;5.95;2.90;;;8.00;84.30;;;;;;4676526;30;20105;-84
2022/01/20 11:00:10;;;;;;;3.08;2.10;;;7.90;84.50;;;;;;4683402;30;20232;-84
2022/01/20 11:02:55;;;;;;;5.70;3.27;;;7.90;84.40;;;;;;4724055;30;20044;-84
2022/01/20 11:05:23;;;;;;;5.40;2.85;;;7.80;85.50;;;;;;4740830;30;20269;-84
2022/01/20 11:07:51;;;;;;;6.38;2.42;;;7.90;85.90;;;;;;4734037;30;20037;-84
2022/01/20 11:10:18;;;;;;;3.90;2.28;;;7.90;85.50;;;;;;4745994;30;20058;-84
2022/01/20 11:13:03;;;;;;;3.67;2.15;;;7.80;85.90;;;;;;4786085;30;20388;-84
2022/01/20 11:15:33;;;;;;;5.53;2.67;;;7.90;85.20;;;;;;4784018;30;20321;-84
2022/01/20 11:18:03;;;;;;;3.92;2.83;;;8.00;85.20;;;;;;4784571;29;20027;-84
2022/01/20 11:20:46;;;;;;;7.40;2.38;;;8.10;84.00;;;;;;4787378;29;20114;-84
2022/01/20 11:23:14;;;;;;;3.53;2.78;;;8.10;83.60;;;;;;4783536;30;20027;-84
2022/01/20 11:26:04;;;;;;;6.68;2.92;;;8.20;83.20;;;;;;4796765;30;20327;-85
2022/01/20 11:28:58;;;;;;;3.75;2.97;;;8.20;82.70;;;;;;4784661;30;20027;-83
2022/01/20 11:31:43;;;;;;;3.90;2.38;;;8.20;82.50;;;;;;4796994;30;20389;-83
2022/01/20 11:34:27;;;;;;;3.08;2.20;;;8.10;82.30;;;;;;4799088;30;20053;-84
2022/01/20 11:36:52;;;;;;;3.55;2.53;;;8.00;82.70;;;;;;4768023;29;20106;-84
2022/01/20 11:39:23;;;;;;;10.95;2.42;;;8.10;82.80;;;;;;4768076;30;20046;-84
2022/01/20 11:41:50;;;;;;;2.97;2.20;;;8.10;81.40;;;;;;4782855;30;20047;-84
2022/01/20 11:44:24;;;;;;;7.60;2.38;;;8.00;81.80;;;;;;4782623;30;20031;-84
2022/01/20 11:46:52;;;;;;;5.10;2.85;;;7.90;81.40;;;;;;4782540;30;20082;-84
2022/01/20 11:49:21;;;;;;;4.28;2.53;;;7.90;81.80;;;;;;4784351;30;20036;-84
2022/01/20 11:51:58;;;;;;;8.82;2.08;;;7.90;81.40;;;;;;4787584;29;20027;-84
2022/01/20 11:54:33;;;;;;;4.65;2.58;;;7.90;80.30;;;;;;4797635;30;20053;-84
2022/01/20 11:57:25;;;;;;;3.72;1.80;;;7.80;80.10;;;;;;4797496;30;20027;-85
2022/01/20 11:59:56;;;;;;;4.43;2.30;;;7.90;80.30;;;;;;4795090;29;20033;-84
2022/01/20 12:02:35;;;;;;;5.93;2.00;;;7.90;79.40;;;;;;4783431;29;20352;-84
2022/01/20 12:05:18;;;;;;;6.80;2.20;;;8.00;79.30;;;;;;4777003;29;20027;-84
2022/01/20 12:07:49;;;;;;;6.57;2.28;;;8.00;78.90;;;;;;4781063;30;20032;-84
2022/01/20 12:10:21;;;;;;;3.88;2.20;;;8.10;77.80;;;;;;4779083;30;20059;-84
2022/01/20 12:12:47;;;;;;;10.25;2.58;;;8.10;77.90;;;;;;4774160;30;20078;-84
2022/01/20 12:15:18;;;;;;;3.45;1.92;;;8.00;76.90;;;;;;4767843;30;20035;-84
2022/01/20 12:17:55;;;;;;;2.75;1.98;;;7.90;76.80;;;;;;4778521;30;20039;-83
2022/01/20 12:20:22;;;;;;;14.02;2.03;;;7.90;77.20;;;;;;4767212;29;20107;-83
2022/01/20 12:22:48;;;;;;;;;;;7.90;76.70;;;;;;4778956;30;20385;-84
2022/01/20 12:25:15;;;;;;;5.73;2.33;;;7.90;76.80;;;;;;4782177;30;19905;-84
2022/01/20 12:27:42;;;;;;;7.40;2.38;;;8.00;76.80;;;;;;4781943;30;20538;-84
2022/01/20 12:30:29;;;;;;;4.38;2.40;;;8.10;75.40;;;;;;4767622;30;20107;-84
2022/01/20 12:32:59;;;;;;;;;;;8.10;74.80;;;;;;4767484;30;20092;-84
2022/01/20 12:35:33;;;;;;;6.25;2.05;;;8.00;73.00;;;;;;4794488;30;19915;-83
2022/01/20 12:37:58;;;;;;;7.35;1.92;;;8.00;73.40;;;;;;4781956;30;20034;-84
2022/01/20 12:40:24;;;;;;;5.18;1.45;;;8.00;73.30;;;;;;4766847;30;20027;-84
2022/01/20 12:42:50;;;;;;;4.80;1.85;;;8.00;72.80;;;;;;4766975;30;20031;-84
2022/01/20 12:48:16;;;;;;;3.72;1.83;;;8.10;73.10;;;;;;4796830;30;20066;-85
2022/01/20 12:51:05;;;;;;;3.15;2.05;;;8.00;74.00;;;;;;4781716;30;20039;-82
2022/01/20 12:53:41;;;;;;;5.60;1.60;;;8.10;74.20;;;;;;4781863;30;20344;-83
2022/01/20 12:56:12;;;;;;;3.25;1.90;;;8.10;73.50;;;;;;4797035;30;20023;-83
2022/01/20 12:58:49;;;;;;;2.90;1.70;;;8.20;73.10;;;;;;4782863;30;20110;-84
2022/01/20 13:01:15;;;;;;;3.35;2.00;;;8.30;72.90;;;;;;4796630;30;20023;-84
2022/01/20 13:03:41;;;;;;;3.47;1.80;;;8.40;72.60;;;;;;4781172;30;20358;-84
2022/01/20 13:06:11;;;;;;;5.85;1.60;;;8.50;72.30;;;;;;4796635;30;20081;-84
2022/01/20 13:08:41;;;;;;;7.40;2.20;;;8.50;70.70;;;;;;4781664;30;20043;-83
2022/01/20 13:11:13;;;;;;;6.20;1.80;;;8.30;71.40;;;;;;4781579;30;20035;-84
2022/01/20 13:13:38;;;;;;;4.07;1.65;;;8.20;71.60;;;;;;4781256;30;20086;-83
2022/01/20 13:16:13;;;;;;;2.28;1.75;;;8.20;71.80;;;;;;4751891;30;20040;-84
2022/01/20 13:18:38;;;;;;;4.53;1.88;;;8.10;71.80;;;;;;4781269;30;20246;-83
2022/01/20 13:21:07;;;;;;;4.35;1.70;;;8.00;72.10;;;;;;4751490;30;20058;-83
2022/01/20 13:23:55;;;;;;;7.18;1.75;;;8.00;72.20;;;;;;4776725;30;20032;-83
2022/01/20 13:26:22;;;;;;;3.85;2.15;;;7.90;71.80;;;;;;4787685;30;20031;-83
2022/01/20 13:28:57;;;;;;;;;;;7.90;72.40;;;;;;4747276;30;20208;-84
2022/01/20 13:31:23;;;;;;;4.07;1.98;;;7.90;73.00;;;;;;4792387;30;19921;-83
2022/01/20 13:33:49;;;;;;;9.30;2.22;;;7.90;73.70;;;;;;4778662;30;20335;-84
2022/01/20 13:36:16;;;;;;;2.65;1.65;;;7.90;74.60;;;;;;4795656;30;20030;-84
2022/01/20 13:38:48;;;;;;;9.40;2.05;;;7.90;73.50;;;;;;4781027;30;20042;-83
2022/01/20 13:41:21;;;;;;;3.53;1.80;;;7.80;74.50;;;;;;4767367;30;20054;-84
2022/01/20 13:46:45;;;;;;;6.38;2.15;;;7.70;76.00;;;;;;4794699;29;20141;-83
2022/01/20 13:49:13;;;;;;;1.88;0.60;;;7.80;75.30;;;;;;4780152;29;20110;-83
2022/01/20 13:51:39;;;;;;;5.03;2.20;;;7.10;75.60;;;;;;4780508;30;20102;-83
2022/01/20 13:54:05;;;;;;;6.93;0.83;;;6.50;78.60;;;;;;4796163;30;20035;-83
2022/01/20 13:56:31;;;;;;;3.92;0.68;;;6.00;83.20;;;;;;4780518;30;20276;-83
2022/01/20 13:59:09;;;;;;;9.93;0.88;;;5.40;89.60;;;;;;4783799;30;20039;-81
2022/01/20 14:01:35;;;;;;;4.18;0.70;;;5.00;91.90;;;;;;4781182;30;20024;-81
2022/01/20 14:04:01;;;;;;;2.20;0.80;;;4.70;93.10;;;;;;4781257;30;20038;-82
2022/01/20 14:06:27;;;;;;;2.58;0.82;;;4.60;93.80;;;;;;4781105;30;20058;-83
2022/01/20 14:08:54;;;;;;;3.50;0.85;;;4.40;94.60;;;;;;4751726;30;20047;-82
2022/01/20 14:11:21;;;;;;;7.63;0.80;;;4.20;95.30;;;;;;4778263;30;20323;-82
2022/01/20 14:13:47;;;;;;;6.07;0.95;;;4.10;96.40;;;;;;4794197;30;20342;-83
2022/01/20 14:16:13;;;;;;;5.85;0.90;;;3.90;97.10;;;;;;4780394;30;20061;-83
2022/01/20 14:18:46;;;;;;;4.53;0.77;;;3.90;98.00;;;;;;4786794;30;20036;-83
2022/01/20 14:21:14;;;;;;;2.15;0.60;;;3.70;98.70;;;;;;4795592;30;20379;-83
2022/01/20 14:23:41;;;;;;;1.70;0.70;;;3.60;99.70;;;;;;4781406;30;20441;-84
2022/01/20 14:26:08;;;;;;;1.60;0.70;;;3.40;99.90;;;;;;4781159;30;20057;-83
2022/01/20 14:28:35;;;;;;;2.45;0.80;;;3.20;99.90;;;;;;4780940;30;20085;-84
2022/01/20 14:31:01;;;;;;;2.65;0.85;;;3.10;99.90;;;;;;4780167;30;20042;-84
2022/01/20 14:33:26;;;;;;;2.38;0.90;;;2.90;99.90;;;;;;4795474;30;20039;-84
2022/01/20 14:35:52;;;;;;;6.15;1.10;;;2.80;99.90;;;;;;4780551;30;20046;-84
2022/01/20 14:38:20;;;;;;;3.03;1.15;;;2.70;99.90;;;;;;4780683;30;20024;-84
2022/01/20 14:40:46;;;;;;;2.90;1.10;;;2.70;99.90;;;;;;4770283;30;20066;-84
2022/01/20 14:43:11;;;;;;;2.58;1.00;;;2.70;99.90;;;;;;4781184;30;20031;-84
2022/01/20 14:45:37;;;;;;;2.83;1.10;;;2.70;99.90;;;;;;4768328;29;20665;-84
2022/01/20 14:48:03;;;;;;;9.23;1.73;;;2.80;99.90;;;;;;4783030;30;20047;-84
2022/01/20 14:50:29;;;;;;;2.75;0.90;;;2.80;99.90;;;;;;4790678;30;20123;-83
2022/01/20 14:52:57;;;;;;;4.72;1.30;;;2.90;99.90;;;;;;4784198;30;20331;-84
2022/01/20 14:55:23;;;;;;;4.47;1.25;;;2.90;99.90;;;;;;4769480;30;20035;-83
2022/01/20 14:57:49;;;;;;;5.50;1.35;;;3.00;99.90;;;;;;4784473;30;20300;-83
2022/01/20 15:00:17;;;;;;;4.75;1.40;;;3.00;99.90;;;;;;4802886;29;20051;-83
2022/01/20 15:02:47;;;;;;;4.93;1.40;;;3.00;99.90;;;;;;4784196;30;20043;-83
2022/01/20 15:05:19;;;;;;;5.22;1.20;;;3.00;99.90;;;;;;4781621;30;20035;-83
2022/01/20 15:07:46;;;;;;;11.63;3.80;;;3.10;99.90;;;;;;4779661;30;20231;-83
2022/01/20 15:10:14;;;;;;;9.18;2.75;;;3.10;99.90;;;;;;4783643;30;20039;-84
2022/01/20 15:12:43;;;;;;;7.68;1.90;;;3.10;99.90;;;;;;4783512;30;20039;-83
2022/01/20 15:15:09;;;;;;;5.72;1.40;;;3.00;99.90;;;;;;4798494;30;20055;-83
2022/01/20 15:17:35;;;;;;;4.63;1.30;;;3.00;99.90;;;;;;4783372;30;20456;-83
2022/01/20 15:20:02;;;;;;;8.38;1.88;;;3.00;99.90;;;;;;4781069;30;20201;-83
2022/01/20 15:22:27;;;;;;;4.07;1.38;;;3.00;99.90;;;;;;4783469;30;20051;-83
2022/01/20 15:24:53;;;;;;;8.15;1.52;;;3.00;99.90;;;;;;4783788;30;20102;-84
2022/01/20 15:27:19;;;;;;;10.90;1.10;;;3.00;99.90;;;;;;4782446;30;20047;-84
2022/01/20 15:29:45;;;;;;;3.75;1.38;;;3.10;99.90;;;;;;4783445;29;20027;-84
2022/01/20 15:32:11;;;;;;;4.57;1.10;;;3.10;99.90;;;;;;4783113;30;20043;-84
2022/01/20 15:34:37;;;;;;;8.95;1.38;;;3.10;99.90;;;;;;4786971;30;20038;-84
2022/01/20 15:37:03;;;;;;;5.85;1.45;;;3.20;99.70;;;;;;4782285;30;20055;-82
2022/01/20 15:39:29;;;;;;;4.70;1.45;;;3.10;99.70;;;;;;4797515;30;20019;-83
2022/01/20 15:41:55;;;;;;;8.40;1.88;;;3.20;99.60;;;;;;4796912;30;20031;-83
2022/01/20 15:44:22;;;;;;;4.90;1.58;;;3.20;99.50;;;;;;4803137;29;20258;-83
2022/01/20 15:46:48;;;;;;;5.93;2.10;;;3.20;99.30;;;;;;4781924;30;20063;-83
2022/01/20 15:49:15;;;;;;;8.68;2.25;;;3.20;99.20;;;;;;4796552;30;20047;-83
2022/01/20 15:51:42;;;;;;;6.20;1.83;;;3.20;99.10;;;;;;4767324;30;20043;-83
2022/01/20 15:54:08;;;;;;;4.80;1.80;;;3.20;98.80;;;;;;4781927;30;20347;-83
2022/01/20 15:56:34;;;;;;;4.85;1.85;;;3.20;98.50;;;;;;4790463;29;20243;-82
2022/01/20 15:59:03;;;;;;;2.67;1.70;;;3.20;98.30;;;;;;4789030;30;20346;-82
2022/01/20 16:01:36;;;;;;;8.55;2.45;;;3.20;97.90;;;;;;4781970;30;20224;-81
2022/01/20 16:04:03;;;;;;;7.07;2.33;;;3.20;97.40;;;;;;4796629;30;20035;-82
2022/01/20 16:06:28;;;;;;;19.25;2.65;;;3.20;97.10;;;;;;4781450;30;20037;-82
2022/01/20 16:08:54;;;;;;;8.77;2.20;;;3.20;97.30;;;;;;4785836;30;20047;-83
2022/01/20 16:11:20;;;;;;;11.48;2.05;;;3.20;96.30;;;;;;4782875;30;20067;-83
2022/01/20 16:13:47;;;;;;;6.85;2.08;;;3.20;95.80;;;;;;4798119;30;20058;-83
2022/01/20 16:16:14;;;;;;;8.95;2.10;;;3.30;94.70;;;;;;4752405;30;20097;-84
2022/01/20 16:18:40;;;;;;;5.72;1.75;;;3.20;94.90;;;;;;4782613;30;20057;-84
2022/01/20 16:21:08;;;;;;;10.40;2.53;;;3.20;94.20;;;;;;4781980;30;20035;-84
2022/01/20 16:23:34;;;;;;;5.63;1.75;;;3.30;94.60;;;;;;4781457;30;20066;-83
2022/01/20 16:26:01;;;;;;;6.45;1.75;;;3.40;94.30;;;;;;4779783;30;20039;-84
2022/01/20 16:28:26;;;;;;;13.57;2.05;;;3.40;93.30;;;;;;4780008;30;20119;-84
2022/01/20 16:30:52;;;;;;;7.38;1.88;;;3.40;93.70;;;;;;4781889;30;20062;-84
2022/01/20 16:33:18;;;;;;;7.90;2.10;;;3.40;92.80;;;;;;4791224;30;20039;-84
2022/01/20 16:35:44;;;;;;;10.70;2.80;;;3.40;93.10;;;;;;4781584;30;20039;-84
2022/01/20 16:38:09;;;;;;;9.95;2.10;;;3.40;92.80;;;;;;4781909;30;20106;-84
2022/01/20 16:40:35;;;;;;;8.15;2.53;;;3.40;93.20;;;;;;4799069;29;20027;-84
2022/01/20 16:43:19;;;;;;;5.80;1.92;;;3.50;93.60;;;;;;4781507;30;20388;-83
2022/01/20 16:45:45;;;;;;;7.28;2.08;;;3.50;93.60;;;;;;4765937;30;20063;-83
2022/01/20 16:48:11;;;;;;;8.40;2.10;;;3.50;93.30;;;;;;4752383;30;20054;-84
2022/01/20 16:50:37;;;;;;;6.85;2.72;;;3.50;93.50;;;;;;4766967;30;20084;-83
2022/01/20 16:53:04;;;;;;;7.40;2.63;;;3.60;93.30;;;;;;4796902;30;20140;-83
2022/01/20 16:55:29;;;;;;;13.23;2.83;;;3.60;93.40;;;;;;4781920;30;20242;-83
2022/01/20 16:57:55;;;;;;;11.80;4.35;;;3.60;93.50;;;;;;4767026;30;20089;-84
2022/01/20 17:00:21;;;;;;;8.88;2.22;;;3.50;93.70;;;;;;4782011;30;20080;-84
2022/01/20 17:02:59;;;;;;;5.50;1.90;;;3.60;94.20;;;;;;4766754;30;20047;-84
2022/01/20 17:05:26;;;;;;;4.25;1.70;;;3.60;94.60;;;;;;4776090;30;20046;-84
2022/01/20 17:07:51;;;;;;;4.20;1.77;;;3.60;95.40;;;;;;4766254;30;20327;-84
2022/01/20 17:10:17;;;;;;;7.63;2.05;;;3.60;95.90;;;;;;4796896;30;20373;-84
2022/01/20 17:12:43;;;;;;;7.13;1.90;;;3.50;96.30;;;;;;4766743;30;20058;-84
2022/01/20 17:15:09;;;;;;;7.47;1.73;;;3.40;96.60;;;;;;4781802;30;20058;-84
2022/01/20 17:17:35;;;;;;;7.47;1.60;;;3.50;96.80;;;;;;4779095;30;20032;-84